Time;durP1;ratioP1;P1;durP2;ratioP2;P2;SDS_P1;SDS_P2;PMS_P1;PMS_P2;Temp;Humidity;BMP_temperature;BMP_pressure;BME280_temperature;BME280_humidity;BME280_pressure;Samples;Min_cycle;Max_cycle;Signal;HPM_P1;HPM_P2
2022/08/27 00:00:07;;;;;;;;;;;14.00;99.90;;;;;;5043378;28;19916;-71
2022/08/27 00:02:34;;;;;;;;;;;14.00;99.90;;;;;;5040468;28;19958;-71
2022/08/27 00:05:01;;;;;;;;;;;14.00;99.90;;;;;;5062168;28;19929;-70
2022/08/27 00:07:26;;;;;;;;;;;13.90;99.90;;;;;;5057103;28;20043;-71
2022/08/27 00:09:52;;;;;;;;;;;13.90;99.90;;;;;;5059849;28;19981;-71
2022/08/27 00:12:18;;;;;;;;;;;13.90;99.90;;;;;;5054750;28;19951;-71
2022/08/27 00:14:43;;;;;;;;;;;13.80;99.90;;;;;;5038649;28;19925;-71
2022/08/27 00:17:09;;;;;;;;;;;13.80;99.90;;;;;;5025825;28;20321;-71
2022/08/27 00:19:35;;;;;;;;;;;13.80;99.90;;;;;;5033022;28;19912;-71
2022/08/27 00:22:01;;;;;;;;;;;13.70;99.90;;;;;;5046911;28;19917;-71
2022/08/27 00:24:27;;;;;;;;;;;13.70;99.90;;;;;;5059444;28;19925;-71
2022/08/27 00:26:52;;;;;;;;;;;13.70;99.90;;;;;;5052784;28;20291;-71
2022/08/27 00:29:18;;;;;;;;;;;13.70;99.90;;;;;;5059290;28;19924;-71
2022/08/27 00:31:44;;;;;;;;;;;13.60;99.90;;;;;;5032458;28;19913;-71
2022/08/27 00:34:10;;;;;;;;;;;13.50;99.90;;;;;;5041362;28;20398;-71
2022/08/27 00:36:35;;;;;;;;;;;13.40;99.90;;;;;;5064828;28;19924;-70
2022/08/27 00:39:01;;;;;;;;;;;13.40;99.90;;;;;;5047396;28;19917;-70
2022/08/27 00:41:27;;;;;;;;;;;13.40;99.90;;;;;;5052930;28;19923;-71
2022/08/27 00:43:56;;;;;;;;;;;13.30;99.90;;;;;;5045261;28;19917;-71
2022/08/27 00:46:40;;;;;;;;;;;13.30;99.90;;;;;;5025416;28;19948;-72
2022/08/27 00:49:07;;;;;;;;;;;13.30;99.90;;;;;;5047987;28;19917;-70
2022/08/27 00:51:34;;;;;;;;;;;13.30;99.90;;;;;;5027671;28;19916;-71
2022/08/27 00:54:01;;;;;;;;;;;13.20;99.90;;;;;;5042279;28;19925;-71
2022/08/27 00:56:30;;;;;;;;;;;13.20;99.90;;;;;;5062852;28;19925;-70
2022/08/27 00:58:56;;;;;;;;;;;13.20;99.90;;;;;;5061270;28;19970;-71
2022/08/27 01:01:23;;;;;;;;;;;13.10;99.90;;;;;;5041948;28;19936;-71
2022/08/27 01:03:50;;;;;;;;;;;13.10;99.90;;;;;;5043239;28;19920;-70
2022/08/27 01:06:16;;;;;;;;;;;13.10;99.90;;;;;;5043993;28;19939;-70
2022/08/27 01:08:50;;;;;;;;;;;13.10;99.90;;;;;;5041188;28;20317;-70
2022/08/27 01:11:15;;;;;;;;;;;13.10;99.90;;;;;;5065066;28;19939;-71
2022/08/27 01:13:41;;;;;;;;;;;13.00;99.90;;;;;;5052439;28;20311;-70
2022/08/27 01:16:07;;;;;;;;;;;13.10;99.90;;;;;;5041183;28;20137;-71
2022/08/27 01:18:36;;;;;;;;;;;13.00;99.90;;;;;;5048569;28;19935;-70
2022/08/27 01:21:07;;;;;;;;;;;13.00;99.90;;;;;;5063244;28;19912;-70
2022/08/27 01:23:51;;;;;;;;;;;13.00;99.90;;;;;;5046915;28;20404;-71
2022/08/27 01:26:16;;;;;;;;;;;13.00;99.90;;;;;;5050786;28;20376;-70
2022/08/27 01:28:42;;;;;;;;;;;13.00;99.90;;;;;;5042761;28;19923;-71
2022/08/27 01:31:09;;;;;;;;;;;13.00;99.90;;;;;;5045117;28;19916;-71
2022/08/27 01:33:35;;;;;;;;;;;12.90;99.90;;;;;;5037981;28;19975;-70
2022/08/27 01:36:00;;;;;;;;;;;12.80;99.90;;;;;;5019308;28;20454;-73
2022/08/27 01:38:26;;;;;;;;;;;12.70;99.90;;;;;;5036950;28;19916;-73
2022/08/27 01:40:52;;;;;;;;;;;12.70;99.90;;;;;;5040286;28;19921;-70
2022/08/27 01:43:17;;;;;;;;;;;12.60;99.90;;;;;;5038773;28;20015;-70
2022/08/27 01:45:44;;;;;;;;;;;12.50;99.90;;;;;;5043344;28;20008;-71
2022/08/27 01:48:10;;;;;;;;;;;12.50;99.90;;;;;;5044347;28;19913;-70
2022/08/27 01:50:38;;;;;;;;;;;12.40;99.90;;;;;;5038668;28;19958;-70
2022/08/27 01:53:06;;;;;;;;;;;12.40;99.90;;;;;;5055552;28;19932;-73
2022/08/27 01:55:32;;;;;;;;;;;12.40;99.90;;;;;;5049295;28;19913;-73
2022/08/27 01:57:57;;;;;;;;;;;12.40;99.90;;;;;;5045132;28;19923;-72
2022/08/27 02:00:25;;;;;;;;;;;12.40;99.90;;;;;;5045583;28;19958;-73
2022/08/27 02:02:51;;;;;;;;;;;12.30;99.90;;;;;;5057265;28;20388;-73
2022/08/27 02:05:17;;;;;;;;;;;12.30;99.90;;;;;;5049379;28;19932;-72
2022/08/27 02:07:43;;;;;;;;;;;12.30;99.90;;;;;;5017916;28;19913;-72
2022/08/27 02:10:10;;;;;;;;;;;12.20;99.90;;;;;;5033201;28;19924;-73
2022/08/27 02:12:35;;;;;;;;;;;12.20;99.90;;;;;;5048716;28;19917;-71
2022/08/27 02:15:01;;;;;;;;;;;12.20;99.90;;;;;;5036961;28;19939;-70
2022/08/27 02:17:27;;;;;;;;;;;12.20;99.90;;;;;;5044088;28;20466;-70
2022/08/27 02:19:52;;;;;;;;;;;12.10;99.90;;;;;;5026933;28;20353;-70
2022/08/27 02:22:18;;;;;;;;;;;12.10;99.90;;;;;;5059319;28;20009;-73
2022/08/27 02:24:44;;;;;;;;;;;12.10;99.90;;;;;;5052345;28;20477;-72
2022/08/27 02:27:10;;;;;;;;;;;12.20;99.90;;;;;;5053547;28;19924;-73
2022/08/27 02:29:35;;;;;;;;;;;12.30;99.90;;;;;;5055097;28;19920;-73
2022/08/27 02:32:01;;;;;;;;;;;12.30;99.90;;;;;;5041604;28;20288;-73
2022/08/27 02:34:27;;;;;;;;;;;12.30;99.90;;;;;;5021396;28;20262;-73
2022/08/27 02:36:52;;;;;;;;;;;12.40;99.90;;;;;;5053322;28;19921;-71
2022/08/27 02:39:18;;;;;;;;;;;12.40;99.90;;;;;;5060815;28;20590;-70
2022/08/27 02:41:43;;;;;;;;;;;12.40;99.90;;;;;;5043320;28;19923;-70
2022/08/27 02:44:10;;;;;;;;;;;12.40;99.90;;;;;;5039375;28;19916;-71
2022/08/27 02:46:36;;;;;;;;;;;12.40;99.90;;;;;;5060066;28;19917;-71
2022/08/27 02:49:01;;;;;;;;;;;12.40;99.90;;;;;;5020021;28;20326;-73
2022/08/27 02:51:27;;;;;;;;;;;12.40;99.90;;;;;;5046663;28;19916;-73
2022/08/27 02:53:53;;;;;;;;;;;12.30;99.90;;;;;;5058182;28;19936;-73
2022/08/27 02:56:18;;;;;;;;;;;12.30;99.90;;;;;;5052479;28;19920;-72
2022/08/27 02:58:44;;;;;;;;;;;12.20;99.90;;;;;;5058580;28;19917;-70
2022/08/27 03:01:10;;;;;;;;;;;12.20;99.90;;;;;;5059023;28;19920;-70
2022/08/27 03:03:36;;;;;;;;;;;12.20;99.90;;;;;;5041540;28;19927;-70
2022/08/27 03:06:01;;;;;;;;;;;12.10;99.90;;;;;;5040625;28;20011;-71
2022/08/27 03:08:27;;;;;;;;;;;12.00;99.90;;;;;;5024756;28;19917;-70
2022/08/27 03:10:54;;;;;;;;;;;12.00;99.90;;;;;;5039128;28;19996;-70
2022/08/27 03:13:19;;;;;;;;;;;11.90;99.90;;;;;;5033997;28;20388;-73
2022/08/27 03:15:45;;;;;;;;;;;11.90;99.90;;;;;;5040776;28;19909;-73
2022/08/27 03:18:17;;;;;;;;;;;11.90;99.90;;;;;;5057727;28;19913;-73
2022/08/27 03:20:44;;;;;;;;;;;11.80;99.90;;;;;;5046861;28;19917;-70
2022/08/27 03:23:10;;;;;;;;;;;11.80;99.90;;;;;;5032568;28;20329;-70
2022/08/27 03:25:36;;;;;;;;;;;11.70;99.90;;;;;;5045562;28;20517;-70
2022/08/27 03:28:02;;;;;;;;;;;11.70;99.90;;;;;;5060034;28;20017;-70
2022/08/27 03:30:28;;;;;;;;;;;11.70;99.90;;;;;;5039062;28;19917;-73
2022/08/27 03:32:53;;;;;;;;;;;11.70;99.90;;;;;;5050082;28;19916;-73
2022/08/27 03:35:19;;;;;;;;;;;11.70;99.90;;;;;;5056238;28;20011;-72
2022/08/27 03:37:45;;;;;;;;;;;11.80;99.90;;;;;;5059736;28;20302;-73
2022/08/27 03:40:11;;;;;;;;;;;11.80;99.90;;;;;;5036209;28;20357;-72
2022/08/27 03:42:37;;;;;;;;;;;11.90;99.90;;;;;;5020153;28;19994;-72
2022/08/27 03:45:03;;;;;;;;;;;12.00;99.90;;;;;;5032461;28;20009;-72
2022/08/27 03:47:29;;;;;;;;;;;12.00;99.90;;;;;;5054290;28;20502;-72
2022/08/27 03:49:55;;;;;;;;;;;12.10;99.90;;;;;;5028616;28;20278;-72
2022/08/27 03:52:21;;;;;;;;;;;12.20;99.90;;;;;;5019243;28;20277;-72
2022/08/27 03:54:46;;;;;;;;;;;12.20;99.90;;;;;;5022276;28;19947;-72
2022/08/27 03:57:12;;;;;;;;;;;12.30;99.90;;;;;;5048344;28;19924;-70
2022/08/27 03:59:37;;;;;;;;;;;12.30;99.90;;;;;;5048081;28;19935;-70
2022/08/27 04:02:03;;;;;;;;;;;12.30;99.90;;;;;;5057642;28;19912;-70
2022/08/27 04:04:29;;;;;;;;;;;12.30;99.90;;;;;;5053942;28;19920;-70
2022/08/27 04:06:56;;;;;;;;;;;12.30;99.90;;;;;;5056017;28;22228;-70
2022/08/27 04:09:21;;;;;;;;;;;12.30;99.90;;;;;;5052666;28;19917;-70
2022/08/27 04:11:47;;;;;;;;;;;12.30;99.90;;;;;;5038456;28;20352;-69
2022/08/27 04:14:13;;;;;;;;;;;12.30;99.90;;;;;;5035821;28;20446;-70
2022/08/27 04:16:39;;;;;;;;;;;12.30;99.90;;;;;;5035485;28;19948;-70
2022/08/27 04:19:04;;;;;;;;;;;12.20;99.90;;;;;;5045936;28;20260;-70
2022/08/27 04:21:31;;;;;;;;;;;12.10;99.90;;;;;;5055120;28;19916;-70
2022/08/27 04:23:57;;;;;;;;;;;12.10;99.90;;;;;;5049770;28;19925;-72
2022/08/27 04:26:22;;;;;;;;;;;12.10;99.90;;;;;;5018781;28;20440;-72
2022/08/27 04:28:48;;;;;;;;;;;12.00;99.90;;;;;;5021118;28;19917;-72
2022/08/27 04:31:15;;;;;;;;;;;12.00;99.90;;;;;;5040745;28;19974;-70
2022/08/27 04:33:41;;;;;;;;;;;11.90;99.90;;;;;;5035165;28;19916;-70
2022/08/27 04:36:08;;;;;;;;;;;11.90;99.90;;;;;;5040947;28;19924;-71
2022/08/27 04:38:34;;;;;;;;;;;11.80;99.90;;;;;;5043081;28;19985;-70
2022/08/27 04:41:20;;;;;;;;;;;11.70;99.90;;;;;;5039319;28;20396;-69
2022/08/27 04:43:47;;;;;;;;;;;11.70;99.90;;;;;;5038578;28;20300;-70
2022/08/27 04:46:12;;;;;;;;;;;11.70;99.90;;;;;;5048238;28;20369;-69
2022/08/27 04:48:38;;;;;;;;;;;11.70;99.90;;;;;;5049685;28;19916;-70
2022/08/27 04:51:03;;;;;;;;;;;11.70;99.90;;;;;;5039100;28;20736;-70
2022/08/27 04:53:29;;;;;;;;;;;11.60;99.90;;;;;;5034553;28;19940;-70
2022/08/27 04:55:55;;;;;;;;;;;11.60;99.90;;;;;;5038721;28;19947;-70
2022/08/27 04:58:21;;;;;;;;;;;11.60;99.90;;;;;;5038606;28;20016;-70
2022/08/27 05:00:49;;;;;;;;;;;11.60;99.90;;;;;;5034170;28;20312;-69
2022/08/27 05:03:16;;;;;;;;;;;11.60;99.90;;;;;;5050133;28;19992;-70
2022/08/27 05:05:42;;;;;;;;;;;11.50;99.90;;;;;;5031853;28;19925;-72
2022/08/27 05:08:09;;;;;;;;;;;11.50;99.90;;;;;;5037728;28;19912;-72
2022/08/27 05:10:41;;;;;;;;;;;11.50;99.90;;;;;;5041855;28;20361;-72
2022/08/27 05:13:07;;;;;;;;;;;11.40;99.90;;;;;;5037722;28;19917;-70
2022/08/27 05:15:33;;;;;;;;;;;11.50;99.90;;;;;;5052446;28;19938;-69
2022/08/27 05:17:59;;;;;;;;;;;11.40;99.90;;;;;;5055221;28;20086;-70
2022/08/27 05:20:29;;;;;;;;;;;11.50;99.90;;;;;;5042900;28;20411;-70
2022/08/27 05:22:55;;;;;;;;;;;11.50;99.90;;;;;;5043315;28;19924;-70
2022/08/27 05:25:21;;;;;;;;;;;11.50;99.90;;;;;;5051269;28;19929;-70
2022/08/27 05:27:47;;;;;;;;;;;11.50;99.90;;;;;;5060433;28;19912;-70
2022/08/27 05:30:12;;;;;;;;;;;11.60;99.90;;;;;;5056889;28;19973;-70
2022/08/27 05:32:38;;;;;;;;;;;11.60;99.90;;;;;;5051132;28;20109;-72
2022/08/27 05:35:04;;;;;;;;;;;11.70;99.90;;;;;;5045906;28;19920;-72
2022/08/27 05:37:32;;;;;;;;;;;11.80;99.90;;;;;;5049775;28;20510;-72
2022/08/27 05:40:01;;;;;;;;;;;11.90;99.90;;;;;;5044273;28;20388;-72
2022/08/27 05:42:30;;;;;;;;;;;11.90;99.90;;;;;;5050497;28;19948;-72
2022/08/27 05:44:56;;;;;;;;;;;12.00;99.90;;;;;;5039446;28;19921;-72
2022/08/27 05:47:21;;;;;;;;;;;12.10;99.90;;;;;;5043041;28;20414;-72
2022/08/27 05:49:50;;;;;;;;;;;12.10;99.90;;;;;;5029198;28;19951;-70
2022/08/27 05:52:16;;;;;;;;;;;12.10;99.90;;;;;;5036393;28;19917;-69
2022/08/27 05:54:41;;;;;;;;;;;12.20;99.90;;;;;;5033145;28;19963;-72
2022/08/27 05:57:07;;;;;;;;;;;12.20;99.90;;;;;;5037089;28;19920;-72
2022/08/27 06:02:19;;;;;;;;;;;12.40;99.90;;;;;;5033822;28;19970;-70
2022/08/27 06:04:45;;;;;;;;;;;12.40;99.90;;;;;;5044265;28;20539;-72
2022/08/27 06:07:11;;;;;;;;;;;12.50;99.90;;;;;;5051187;28;19927;-71
2022/08/27 06:09:37;;;;;;;;;;;12.50;99.90;;;;;;5056865;28;20237;-72
2022/08/27 06:12:03;;;;;;;;;;;12.60;99.90;;;;;;5047437;28;20288;-72
2022/08/27 06:14:28;;;;;;;;;;;12.60;99.90;;;;;;5021388;28;19932;-69
2022/08/27 06:16:54;;;;;;;;;;;12.70;99.90;;;;;;5035339;28;19962;-69
2022/08/27 06:19:20;;;;;;;;;;;12.70;99.90;;;;;;5051192;28;20322;-70
2022/08/27 06:21:46;;;;;;;;;;;12.90;99.90;;;;;;5034245;28;19917;-70
2022/08/27 06:24:11;;;;;;;;;;;13.00;99.90;;;;;;5036121;28;20439;-72
2022/08/27 06:26:37;;;;;;;;;;;13.20;99.90;;;;;;5053874;28;19973;-69
2022/08/27 06:29:04;;;;;;;;;;;13.40;99.90;;;;;;5052852;28;19940;-70
2022/08/27 06:31:29;;;;;;;;;;;13.60;99.90;;;;;;5029398;28;20335;-70
2022/08/27 06:33:57;;;;;;;;;;;13.70;99.90;;;;;;5037596;28;20399;-69
2022/08/27 06:36:24;;;;;;;;;;;13.80;99.90;;;;;;5047378;28;19962;-70
2022/08/27 06:38:50;;;;;;;;;;;13.90;99.90;;;;;;5041423;28;19917;-70
2022/08/27 06:41:18;;;;;;;;;;;14.00;99.90;;;;;;5052556;28;19951;-73
2022/08/27 06:43:44;;;;;;;;;;;14.20;99.90;;;;;;5039618;28;19955;-72
2022/08/27 06:46:13;;;;;;;;;;;14.50;99.90;;;;;;5047038;28;19951;-72
2022/08/27 06:48:39;;;;;;;;;;;14.80;99.90;;;;;;5033422;28;20183;-72
2022/08/27 06:51:15;;;;;;;;;;;15.00;99.90;;;;;;5057295;28;20349;-72
2022/08/27 06:53:41;;;;;;;;;;;15.20;99.90;;;;;;5048202;28;19921;-72
2022/08/27 06:56:07;;;;;;;;;;;15.30;99.90;;;;;;5038594;28;19917;-72
2022/08/27 06:58:33;;;;;;;;;;;15.40;99.90;;;;;;5040423;28;20106;-72
2022/08/27 07:00:59;;;;;;;;;;;15.40;99.90;;;;;;5041055;28;20334;-72
2022/08/27 07:03:24;;;;;;;;;;;15.40;99.90;;;;;;5030879;28;19962;-73
2022/08/27 07:05:50;;;;;;;;;;;15.50;99.90;;;;;;5031258;28;19929;-72
2022/08/27 07:08:15;;;;;;;;;;;15.50;99.90;;;;;;5047057;28;20012;-72
2022/08/27 07:10:41;;;;;;;;;;;15.60;99.90;;;;;;5028244;28;20370;-72
2022/08/27 07:13:07;;;;;;;;;;;15.70;99.90;;;;;;5035423;28;19931;-72
2022/08/27 07:15:33;;;;;;;;;;;15.70;99.90;;;;;;5045124;28;19924;-72
2022/08/27 07:17:59;;;;;;;;;;;15.80;99.90;;;;;;5048446;28;19923;-73
2022/08/27 07:20:24;;;;;;;;;;;15.90;99.90;;;;;;5026619;28;19916;-73
2022/08/27 07:22:52;;;;;;;;;;;16.00;99.90;;;;;;5037644;28;19923;-72
2022/08/27 07:25:19;;;;;;;;;;;16.20;99.90;;;;;;5040942;28;19928;-73
2022/08/27 07:27:45;;;;;;;;;;;16.30;99.90;;;;;;5035696;28;19916;-72
2022/08/27 07:30:11;;;;;;;;;;;16.40;99.90;;;;;;5038129;28;19928;-72
2022/08/27 07:32:37;;;;;;;;;;;16.60;99.90;;;;;;5044443;28;20016;-72
2022/08/27 07:35:03;;;;;;;;;;;16.70;99.90;;;;;;5055958;28;20378;-73
2022/08/27 07:37:29;;;;;;;;;;;16.80;99.90;;;;;;5042010;28;19927;-72
2022/08/27 07:39:54;;;;;;;;;;;17.00;99.90;;;;;;5039789;28;19909;-72
2022/08/27 07:45:04;;;;;;;;;;;17.30;99.90;;;;;;5039555;28;19979;-72
2022/08/27 07:47:30;;;;;;;;;;;17.60;99.90;;;;;;5034449;28;19960;-72
2022/08/27 07:49:56;;;;;;;;;;;19.00;99.90;;;;;;5036229;28;20372;-72
2022/08/27 07:52:22;;;;;;;;;;;22.20;99.90;;;;;;5031172;28;19923;-73
2022/08/27 07:54:47;;;;;;;;;;;25.00;99.90;;;;;;5031116;28;19917;-73
2022/08/27 07:57:13;;;;;;;;;;;27.70;97.30;;;;;;5029912;28;19924;-73
2022/08/27 07:59:38;;;;;;;;;;;29.50;89.60;;;;;;5032965;28;19917;-73
2022/08/27 08:02:04;;;;;;;;;;;31.20;81.00;;;;;;5035167;28;19929;-72
2022/08/27 08:04:29;;;;;;;;;;;32.30;73.70;;;;;;5035303;28;19974;-73
2022/08/27 08:06:55;;;;;;;;;;;33.20;70.10;;;;;;5050280;28;19916;-73
2022/08/27 08:09:22;;;;;;;;;;;33.20;65.70;;;;;;5050008;28;19917;-73
2022/08/27 08:11:48;;;;;;;;;;;32.50;63.00;;;;;;5034448;28;19952;-73
2022/08/27 08:14:14;;;;;;;;;;;33.30;64.90;;;;;;5027317;28;19978;-73
2022/08/27 08:16:39;;;;;;;;;;;33.90;59.30;;;;;;5054236;28;19923;-72
2022/08/27 08:19:05;;;;;;;;;;;34.50;60.20;;;;;;5049405;28;19931;-73
2022/08/27 08:21:30;;;;;;;;;;;35.30;57.30;;;;;;5035154;28;20318;-73
2022/08/27 08:23:56;;;;;;;;;;;35.60;55.40;;;;;;5044070;28;19920;-73
2022/08/27 08:26:22;;;;;;;;;;;35.30;54.20;;;;;;5042361;28;19967;-73
2022/08/27 08:28:48;;;;;;;;;;;35.80;54.80;;;;;;5049920;28;20778;-74
2022/08/27 08:31:13;;;;;;;;;;;35.40;54.20;;;;;;5040824;28;19916;-73
2022/08/27 08:33:39;;;;;;;;;;;33.00;55.00;;;;;;5040955;28;19917;-73
2022/08/27 08:36:11;;;;;;;;;;;32.10;57.70;;;;;;5042585;28;19939;-72
2022/08/27 08:38:37;;;;;;;;;;;30.70;64.90;;;;;;5030125;28;19917;-73
2022/08/27 08:41:04;;;;;;;;;;;30.50;65.80;;;;;;5038220;28;19916;-71
2022/08/27 08:43:38;;;;;;;;;;;31.90;66.70;;;;;;5020790;28;19917;-72
2022/08/27 08:46:10;;;;;;;;;;;33.50;61.30;;;;;;5033374;28;19932;-72
2022/08/27 08:48:37;;;;;;;;;;;33.80;58.00;;;;;;5038514;28;19932;-72
2022/08/27 08:51:05;;;;;;;;;;;34.50;56.80;;;;;;5037642;28;20316;-72
2022/08/27 08:53:34;;;;;;;;;;;34.90;52.80;;;;;;5042519;28;20035;-72
2022/08/27 08:56:01;;;;;;;;;;;34.10;54.50;;;;;;5042852;28;19989;-71
2022/08/27 08:58:37;;;;;;;;;;;32.10;55.10;;;;;;5055908;28;19920;-71
2022/08/27 09:01:03;;;;;;;;;;;31.20;60.80;;;;;;5052031;28;20395;-71
2022/08/27 09:03:32;;;;;;;;;;;30.60;61.00;;;;;;5032472;28;20428;-71
2022/08/27 09:06:16;;;;;;;;;;;29.60;67.90;;;;;;5042658;28;19959;-71
2022/08/27 09:08:42;;;;;;;;;;;28.90;69.20;;;;;;5059202;28;20011;-71
2022/08/27 09:11:25;;;;;;;;;;;28.20;72.70;;;;;;5042837;28;19920;-71
2022/08/27 09:13:54;;;;;;;;;;;27.80;78.20;;;;;;5042313;28;19963;-71
2022/08/27 09:16:20;;;;;;;;;;;28.10;73.20;;;;;;5040481;28;20475;-71
2022/08/27 09:18:45;;;;;;;;;;;28.00;72.90;;;;;;5044186;28;19999;-71
2022/08/27 09:21:21;;;;;;;;;;;28.70;73.50;;;;;;5041545;28;19921;-70
2022/08/27 09:24:13;;;;;;;;;;;28.70;70.80;;;;;;5040537;28;19917;-70
2022/08/27 09:26:39;;;;;;;;;;;28.00;74.90;;;;;;5037862;28;20342;-70
2022/08/27 09:29:15;;;;;;;;;;;27.70;73.50;;;;;;5042612;28;19912;-70
2022/08/27 09:31:44;;;;;;;;;;;27.00;82.50;;;;;;5039621;28;20384;-70
2022/08/27 09:34:09;;;;;;;;;;;27.20;81.30;;;;;;5046064;28;19917;-70
2022/08/27 09:36:45;;;;;;;;;;;28.00;79.70;;;;;;5052628;28;19921;-70
2022/08/27 09:39:12;;;;;;;;;;;28.60;75.60;;;;;;5035313;28;19917;-70
2022/08/27 09:41:41;;;;;;;;;;;30.30;76.20;;;;;;5037695;28;20411;-71
2022/08/27 09:44:09;;;;;;;;;;;32.40;66.90;;;;;;5031227;28;19940;-71
2022/08/27 09:46:34;;;;;;;;;;;33.70;58.80;;;;;;5022989;28;20431;-70
2022/08/27 09:49:11;;;;;;;;;;;32.00;57.70;;;;;;5028532;28;19944;-71
2022/08/27 09:51:38;;;;;;;;;;;31.40;65.50;;;;;;5024955;28;19924;-71
2022/08/27 09:54:05;;;;;;;;;;;30.70;64.80;;;;;;5023464;28;20335;-70
2022/08/27 09:56:38;;;;;;;;;;;29.50;65.40;;;;;;5038024;28;19916;-72
2022/08/27 09:59:06;;;;;;;;;;;29.00;74.40;;;;;;5040363;28;19970;-73
2022/08/27 10:01:33;;;;;;;;;;;28.60;77.50;;;;;;5044493;28;19920;-73
2022/08/27 10:04:04;;;;;;;;;;;28.30;77.00;;;;;;5051804;28;20062;-72
2022/08/27 10:06:31;;;;;;;;;;;28.90;76.30;;;;;;5035359;28;19920;-72
2022/08/27 10:09:16;;;;;;;;;;;29.80;71.70;;;;;;5039230;28;19917;-73
2022/08/27 10:12:02;;;;;;;;;;;30.30;68.90;;;;;;5029656;28;19917;-73
2022/08/27 10:14:33;;;;;;;;;;;29.60;71.80;;;;;;5030176;28;19978;-74
2022/08/27 10:17:17;;;;;;;;;;;28.90;67.80;;;;;;5032623;28;20401;-73
2022/08/27 10:19:43;;;;;;;;;;;28.70;72.40;;;;;;5031336;28;19917;-73
2022/08/27 10:22:27;;;;;;;;;;;29.50;76.40;;;;;;5027759;28;19917;-73
2022/08/27 10:25:11;;;;;;;;;;;30.60;66.90;;;;;;5023892;28;19942;-72
2022/08/27 10:27:55;;;;;;;;;;;31.40;63.60;;;;;;5023249;28;19978;-73
2022/08/27 10:30:37;;;;;;;;;;;32.80;59.40;;;;;;5038295;28;19948;-73
2022/08/27 10:33:21;;;;;;;;;;;33.90;56.10;;;;;;5033239;28;20166;-73
2022/08/27 10:35:54;;;;;;;;;;;35.20;55.60;;;;;;5031554;28;19917;-71
2022/08/27 10:38:36;;;;;;;;;;;35.20;52.30;;;;;;5037459;28;19917;-71
2022/08/27 10:41:17;;;;;;;;;;;34.10;52.80;;;;;;5044878;28;20058;-70
2022/08/27 10:43:51;;;;;;;;;;;32.40;57.80;;;;;;5037621;28;20368;-70
2022/08/27 10:46:35;;;;;;;;;;;31.10;58.10;;;;;;5036090;28;20019;-70
2022/08/27 10:49:24;;;;;;;;;;;29.80;63.20;;;;;;5026035;28;19924;-70
2022/08/27 10:51:55;;;;;;;;;;;28.90;62.10;;;;;;5035906;28;19939;-70
2022/08/27 10:54:27;;;;;;;;;;;28.30;68.60;;;;;;5022601;28;19917;-70
2022/08/27 10:57:02;;;;;;;;;;;27.90;75.70;;;;;;5038191;28;20009;-70
2022/08/27 10:59:31;;;;;;;;;;;28.50;71.30;;;;;;5035425;28;19916;-70
2022/08/27 11:02:04;;;;;;;;;;;29.30;66.60;;;;;;5030776;28;20042;-70
2022/08/27 11:04:31;;;;;;;;;;;30.50;64.70;;;;;;5048323;28;20017;-70
2022/08/27 11:07:15;;;;;;;;;;;31.20;63.70;;;;;;5017413;28;20436;-71
2022/08/27 11:10:01;;;;;;;;;;;32.40;57.10;;;;;;5034508;28;19931;-71
2022/08/27 11:12:30;;;;;;;;;;;33.10;58.90;;;;;;5026221;28;20562;-71
2022/08/27 11:15:01;;;;;;;;;;;33.60;54.00;;;;;;5042809;28;19924;-71
2022/08/27 11:17:33;;;;;;;;;;;34.00;51.40;;;;;;5032429;28;19917;-71
2022/08/27 11:20:09;;;;;;;;;;;33.90;55.30;;;;;;5028542;28;20011;-71
2022/08/27 11:22:37;;;;;;;;;;;34.00;51.30;;;;;;5036423;28;20013;-71
2022/08/27 11:25:09;;;;;;;;;;;34.40;54.30;;;;;;5035395;28;20558;-71
2022/08/27 11:27:35;;;;;;;;;;;33.80;49.40;;;;;;5033410;28;20451;-70
2022/08/27 11:30:22;;;;;;;;;;;32.00;53.90;;;;;;5037411;28;19916;-70
2022/08/27 11:33:03;;;;;;;;;;;30.40;57.90;;;;;;5042367;28;20006;-71
2022/08/27 11:35:32;;;;;;;;;;;28.90;59.30;;;;;;5033041;28;20155;-70
2022/08/27 11:38:16;;;;;;;;;;;27.90;61.20;;;;;;5032482;28;19924;-70
2022/08/27 11:41:04;;;;;;;;;;;27.00;66.30;;;;;;5030422;28;19954;-70
2022/08/27 11:43:32;;;;;;;;;;;26.80;71.30;;;;;;5029513;28;19920;-70
2022/08/27 11:45:58;;;;;;;;;;;27.70;68.90;;;;;;5031814;28;19925;-71
2022/08/27 11:48:31;;;;;;;;;;;28.50;69.70;;;;;;5033603;28;19968;-71
2022/08/27 11:51:02;;;;;;;;;;;29.20;67.60;;;;;;5044395;28;20006;-70
2022/08/27 11:53:36;;;;;;;;;;;29.60;65.10;;;;;;5032762;28;19920;-70
2022/08/27 11:56:14;;;;;;;;;;;29.10;60.10;;;;;;5028635;28;20368;-71
2022/08/27 11:58:41;;;;;;;;;;;28.20;63.30;;;;;;5034992;28;20400;-70
2022/08/27 12:01:23;;;;;;;;;;;27.40;68.70;;;;;;5051558;28;19955;-71
2022/08/27 12:03:58;;;;;;;;;;;26.40;66.60;;;;;;5031052;28;20312;-70
2022/08/27 12:06:25;;;;;;;;;;;25.60;75.00;;;;;;5027246;28;20167;-71
2022/08/27 12:08:51;;;;;;;;;;;25.10;76.00;;;;;;5035687;28;20281;-70
2022/08/27 12:11:26;;;;;;;;;;;24.70;75.90;;;;;;5045230;28;20339;-70
2022/08/27 12:13:51;;;;;;;;;;;24.40;79.30;;;;;;5044356;28;20443;-70
2022/08/27 12:16:17;;;;;;;;;;;24.20;80.20;;;;;;5044515;28;19921;-70
2022/08/27 12:18:42;;;;;;;;;;;24.00;90.10;;;;;;5043742;28;20075;-70
2022/08/27 12:21:11;;;;;;;;;;;23.80;93.40;;;;;;5045100;28;20296;-70
2022/08/27 12:23:45;;;;;;;;;;;23.60;91.20;;;;;;5044233;28;19917;-70
2022/08/27 12:26:25;;;;;;;;;;;23.60;95.40;;;;;;5042150;28;20289;-70
2022/08/27 12:29:14;;;;;;;;;;;23.60;95.50;;;;;;5035492;28;19924;-70
2022/08/27 12:31:40;;;;;;;;;;;23.90;94.60;;;;;;5038650;28;19917;-70
2022/08/27 12:34:12;;;;;;;;;;;25.10;86.20;;;;;;5046470;28;19924;-71
2022/08/27 12:36:38;;;;;;;;;;;26.60;91.70;;;;;;5039493;28;19924;-70
2022/08/27 12:39:10;;;;;;;;;;;27.80;75.80;;;;;;5060641;28;19917;-70
2022/08/27 12:41:37;;;;;;;;;;;28.30;74.90;;;;;;5051332;28;19917;-70
2022/08/27 12:44:11;;;;;;;;;;;27.80;69.60;;;;;;5033583;28;20652;-70
2022/08/27 12:46:48;;;;;;;;;;;27.00;76.40;;;;;;5034607;28;19917;-70
2022/08/27 12:49:19;;;;;;;;;;;25.90;75.50;;;;;;5032382;28;20412;-70
2022/08/27 12:51:44;;;;;;;;;;;24.90;86.00;;;;;;5044705;28;19916;-70
2022/08/27 12:54:25;;;;;;;;;;;24.40;90.20;;;;;;5038727;28;20352;-71
2022/08/27 12:56:51;;;;;;;;;;;23.90;90.50;;;;;;5043526;28;19920;-70
2022/08/27 12:59:16;;;;;;;;;;;23.50;95.60;;;;;;5039291;28;19923;-70
2022/08/27 13:01:57;;;;;;;;;;;23.40;96.20;;;;;;5027420;28;20512;-70
2022/08/27 13:04:29;;;;;;;;;;;23.30;95.30;;;;;;5034854;28;19927;-70
2022/08/27 13:06:54;;;;;;;;;;;23.40;95.90;;;;;;5050341;28;19920;-69
2022/08/27 13:09:27;;;;;;;;;;;23.30;97.80;;;;;;5042525;28;19924;-70
2022/08/27 13:11:55;;;;;;;;;;;23.20;99.40;;;;;;5024963;28;20023;-70
2022/08/27 13:14:22;;;;;;;;;;;23.20;99.90;;;;;;5039024;28;19956;-70
2022/08/27 13:17:01;;;;;;;;;;;23.00;98.70;;;;;;5039346;28;19916;-70
2022/08/27 13:19:31;;;;;;;;;;;22.90;99.20;;;;;;5036099;28;19996;-70
2022/08/27 13:21:57;;;;;;;;;;;23.00;99.90;;;;;;5059696;28;19912;-70
2022/08/27 13:24:49;;;;;;;;;;;23.10;99.90;;;;;;5046187;28;19921;-70
2022/08/27 13:27:15;;;;;;;;;;;23.20;98.90;;;;;;5038763;28;19920;-70
2022/08/27 13:29:41;;;;;;;;;;;23.40;96.70;;;;;;5039446;28;19921;-70
2022/08/27 13:32:09;;;;;;;;;;;23.40;97.80;;;;;;5033495;28;20388;-73
2022/08/27 13:34:37;;;;;;;;;;;23.40;95.50;;;;;;5032247;28;20384;-73
2022/08/27 13:37:38;;;;;;;;;;;23.40;99.30;;;;;;5034306;28;19916;-73
2022/08/27 13:40:04;;;;;;;;;;;23.70;98.90;;;;;;4947325;28;19981;-73
2022/08/27 13:42:30;;;;;;;;;;;23.90;99.70;;;;;;5018519;28;19956;-73
2022/08/27 13:45:00;;;;;;;;;;;23.90;92.90;;;;;;5036660;28;20024;-73
2022/08/27 13:47:26;;;;;;;;;;;23.90;93.30;;;;;;5035653;28;19916;-73
2022/08/27 13:50:13;;;;;;;;;;;24.10;94.10;;;;;;5040496;28;19971;-74
2022/08/27 13:54:11;;;;;;;;;;;24.90;95.20;;;;;;5023390;28;20311;-74
2022/08/27 13:55:26;;;;;;;;;;;25.60;91.80;;;;;;5030989;28;19916;-73
2022/08/27 13:57:51;;;;;;;;;;;26.10;90.20;;;;;;5034490;28;19921;-73
2022/08/27 14:00:28;;;;;;;;;;;26.30;89.90;;;;;;5035798;28;20467;-74
2022/08/27 14:02:54;;;;;;;;;;;26.20;85.10;;;;;;5037951;28;19916;-74
2022/08/27 14:05:22;;;;;;;;;;;26.10;85.90;;;;;;5038572;28;19925;-74
2022/08/27 14:07:58;;;;;;;;;;;26.10;91.20;;;;;;5037888;28;20281;-74
2022/08/27 14:10:28;;;;;;;;;;;26.30;84.20;;;;;;5025316;28;20027;-74
2022/08/27 14:12:58;;;;;;;;;;;26.50;87.50;;;;;;5041636;28;19924;-74
2022/08/27 14:15:37;;;;;;;;;;;26.80;86.80;;;;;;5028214;28;20423;-73
2022/08/27 14:18:04;;;;;;;;;;;26.50;79.60;;;;;;5035058;28;19939;-74
2022/08/27 14:20:29;;;;;;;;;;;26.20;83.30;;;;;;5033202;28;20388;-74
2022/08/27 14:22:56;;;;;;;;;;;26.10;83.30;;;;;;5031504;28;20077;-74
2022/08/27 14:25:21;;;;;;;;;;;25.80;85.20;;;;;;5039142;28;19924;-73
2022/08/27 14:27:49;;;;;;;;;;;25.50;86.10;;;;;;5044876;28;19916;-73
2022/08/27 14:30:15;;;;;;;;;;;25.10;84.80;;;;;;5049542;28;19928;-73